Palo, Michigan
Current Conditions -  °F | °C
As of 2:54 AM on Friday 31 Oct 2014 (Local Time) from KY70 Reporting Station
Drizzle Drizzle  
Wind Chill: 41°   Ceiling: 4800
Heat Index: 44°   Visibility: 10mi
Dew Point: 39°   Wind: 6mph
Humidity: 81%   Direction: 230°SW
Pressure: 29.92"   Gusts: NA
Location:  43.11°N, 84.99°W
Report Text: KY70 310654Z AUTO 23005KT 10SM -DZ SCT029 BKN048 OVC055 07/04 A2992 RMK AO2 T00670037
Loading
Personal Weather Stations






























Interactive Weather Map
Tropical Storm Tracking
New forecast layout! Learn more

10-Day Weather Forecast

Advertisements
Track Severe Weather on mobile